createdAt,value
2019-03-18T00:02:02.348Z,53.70
2019-03-18T00:05:06.117Z,54.50
2019-03-18T00:08:09.860Z,53.50
2019-03-18T00:11:13.579Z,52.90
2019-03-18T00:14:17.927Z,53.80
2019-03-18T00:17:21.621Z,53.20
2019-03-18T00:20:25.325Z,53.20
2019-03-18T00:23:29.375Z,53.70
2019-03-18T00:26:33.051Z,53.50
2019-03-18T00:29:37.093Z,53.70
2019-03-18T00:32:40.899Z,53.00
2019-03-18T00:35:45.493Z,53.00
2019-03-18T00:38:49.180Z,52.90
2019-03-18T00:41:52.877Z,53.20
2019-03-18T00:44:56.619Z,54.10
2019-03-18T00:48:00.326Z,54.30
2019-03-18T00:51:03.971Z,55.40
2019-03-18T00:54:07.649Z,56.40
2019-03-18T00:57:11.421Z,57.20
2019-03-18T01:00:15.193Z,57.50
2019-03-18T01:03:19.176Z,57.40
2019-03-18T01:06:22.941Z,58.10
2019-03-18T01:09:26.669Z,58.30
2019-03-18T01:12:30.312Z,59.00
2019-03-18T01:15:34.337Z,59.10
2019-03-18T01:18:37.977Z,58.80
2019-03-18T01:21:41.932Z,59.70
2019-03-18T01:24:45.697Z,58.60
2019-03-18T01:27:49.714Z,59.60
2019-03-18T01:30:53.695Z,58.70
2019-03-18T01:33:57.361Z,58.00
2019-03-18T01:37:01.357Z,58.10
2019-03-18T01:40:06.160Z,57.90
2019-03-18T01:43:09.968Z,58.60
2019-03-18T01:46:13.649Z,58.60
2019-03-18T01:49:17.290Z,58.10
2019-03-18T01:52:21.283Z,57.60
2019-03-18T01:55:25.018Z,57.50
2019-03-18T01:58:28.914Z,58.30
2019-03-18T02:01:32.686Z,57.60
2019-03-18T02:04:36.601Z,58.10
2019-03-18T02:07:40.573Z,58.50
2019-03-18T02:10:44.745Z,59.00
2019-03-18T02:13:48.456Z,58.30
2019-03-18T02:16:52.165Z,58.10
2019-03-18T02:19:55.816Z,58.10
2019-03-18T02:22:59.625Z,57.50
2019-03-18T02:26:03.682Z,58.00
2019-03-18T02:29:07.374Z,57.80
2019-03-18T02:32:11.053Z,57.90
2019-03-18T02:35:14.893Z,57.20
2019-03-18T02:38:19.051Z,58.20
2019-03-18T02:41:22.868Z,57.30
2019-03-18T02:44:26.830Z,57.30
2019-03-18T02:47:30.703Z,57.40
2019-03-18T02:50:34.676Z,56.70
2019-03-18T02:53:38.487Z,57.20
2019-03-18T02:56:43.417Z,57.20
2019-03-18T02:59:47.621Z,57.20
2019-03-18T03:02:51.352Z,58.40
2019-03-18T03:05:55.069Z,57.90
2019-03-18T03:08:59.142Z,57.10
2019-03-18T03:12:02.849Z,57.80
2019-03-18T03:15:07.057Z,56.40
2019-03-18T03:18:11.067Z,56.30
2019-03-18T03:21:14.767Z,56.50
2019-03-18T03:24:18.509Z,56.50
2019-03-18T03:27:22.926Z,56.20
2019-03-18T03:30:26.728Z,56.00
2019-03-18T03:33:30.566Z,55.40
2019-03-18T03:36:34.311Z,55.50
2019-03-18T03:39:38.095Z,55.10
2019-03-18T03:42:41.810Z,55.20
2019-03-18T03:45:45.529Z,55.40
2019-03-18T03:48:49.521Z,55.50
2019-03-18T03:51:53.223Z,55.20
2019-03-18T03:54:56.995Z,55.80
2019-03-18T03:58:00.652Z,54.80
2019-03-18T04:01:04.660Z,55.10
2019-03-18T04:04:08.406Z,55.60
2019-03-18T04:07:12.098Z,54.70
2019-03-18T04:10:16.781Z,55.80
2019-03-18T04:13:20.503Z,55.70
2019-03-18T04:16:24.218Z,55.60
2019-03-18T04:19:27.865Z,55.10
2019-03-18T04:22:31.557Z,53.70
2019-03-18T04:25:35.235Z,54.70
2019-03-18T04:28:38.986Z,55.00
2019-03-18T04:31:42.744Z,54.90
2019-03-18T04:34:46.450Z,54.50
2019-03-18T04:37:50.229Z,54.00
2019-03-18T04:40:53.892Z,55.10
2019-03-18T04:43:57.572Z,53.80
2019-03-18T04:47:13.419Z,53.90
2019-03-18T04:50:06.829Z,54.40
2019-03-18T04:53:10.736Z,53.00
2019-03-18T04:56:15.268Z,53.80
2019-03-18T04:59:19.010Z,53.40
2019-03-18T05:02:22.965Z,53.40
2019-03-18T05:05:26.693Z,52.70
2019-03-18T05:08:30.386Z,52.40
2019-03-18T05:11:34.057Z,53.80
2019-03-18T05:14:37.743Z,52.90
2019-03-18T05:17:41.424Z,53.10
2019-03-18T05:20:45.104Z,53.30
2019-03-18T05:23:48.936Z,53.00
2019-03-18T05:26:52.622Z,52.50
2019-03-18T05:29:56.440Z,52.80
2019-03-18T05:33:00.136Z,52.60
2019-03-18T05:36:03.761Z,52.40
2019-03-18T05:39:07.544Z,52.10
2019-03-18T05:42:11.249Z,52.10
2019-03-18T05:45:15.205Z,52.30
2019-03-18T05:48:19.242Z,52.80
2019-03-18T05:51:27.849Z,52.10
2019-03-18T05:54:30.310Z,53.10
2019-03-18T05:57:50.879Z,52.40
2019-03-18T06:00:55.393Z,52.90
2019-03-18T06:03:59.073Z,53.20
2019-03-18T06:07:03.086Z,52.60
2019-03-18T06:10:07.850Z,52.70
2019-03-18T06:13:11.525Z,53.60
2019-03-18T06:16:15.182Z,52.90
2019-03-18T06:19:18.914Z,52.00
2019-03-18T06:22:22.589Z,52.00
2019-03-18T06:25:26.287Z,51.20
2019-03-18T06:28:32.606Z,51.90
2019-03-18T06:31:37.483Z,53.50
2019-03-18T06:34:41.125Z,53.20
2019-03-18T06:37:45.021Z,52.70
2019-03-18T06:40:48.704Z,52.30
2019-03-18T06:43:52.514Z,53.60
2019-03-18T06:46:56.199Z,53.50
2019-03-18T06:49:59.882Z,54.00
2019-03-18T06:53:03.652Z,53.20
2019-03-18T06:56:07.750Z,52.20
2019-03-18T06:59:11.400Z,52.40
2019-03-18T07:02:15.089Z,52.20
2019-03-18T07:05:18.765Z,53.00
2019-03-18T07:08:23.446Z,50.50
2019-03-18T07:11:27.119Z,50.90
2019-03-18T07:14:30.806Z,51.00
2019-03-18T07:17:34.467Z,50.10
2019-03-18T07:20:38.244Z,49.00
2019-03-18T07:23:41.901Z,49.40
2019-03-18T07:26:45.596Z,48.80
2019-03-18T07:29:49.294Z,49.00
2019-03-18T07:32:52.969Z,48.80
2019-03-18T07:35:56.677Z,48.50
2019-03-18T07:39:00.397Z,48.50
2019-03-18T07:42:04.085Z,47.90
2019-03-18T07:45:08.621Z,48.70
2019-03-18T07:48:12.665Z,48.50
2019-03-18T07:51:17.750Z,47.50
2019-03-18T07:54:32.112Z,48.40
2019-03-18T07:57:26.946Z,49.20
2019-03-18T08:00:30.617Z,47.30
2019-03-18T08:03:36.581Z,47.50
2019-03-18T08:06:40.029Z,47.90
2019-03-18T08:09:43.768Z,46.30
2019-03-18T08:12:47.541Z,45.90
2019-03-18T08:15:51.240Z,47.30
2019-03-18T08:18:54.933Z,46.80
2019-03-18T08:21:58.601Z,46.90
2019-03-18T08:25:02.340Z,46.90
2019-03-18T08:28:05.986Z,46.70
2019-03-18T08:31:10.029Z,46.90
2019-03-18T08:34:13.714Z,46.50
2019-03-18T08:37:17.437Z,46.00
2019-03-18T08:40:21.275Z,45.90
2019-03-18T08:43:24.927Z,46.80
2019-03-18T08:46:28.794Z,46.20
2019-03-18T08:49:32.437Z,46.20
2019-03-18T08:52:36.169Z,46.10
2019-03-18T08:55:39.890Z,45.90
2019-03-18T08:58:43.529Z,45.90
2019-03-18T09:01:47.282Z,44.70
2019-03-18T09:04:51.009Z,45.00
2019-03-18T09:07:54.813Z,44.80
2019-03-18T09:10:58.521Z,44.90
2019-03-18T09:14:02.164Z,44.00
2019-03-18T09:17:05.958Z,44.30
2019-03-18T09:20:09.890Z,44.70
2019-03-18T09:23:13.595Z,45.00
2019-03-18T09:26:17.621Z,44.50
2019-03-18T09:29:21.341Z,45.00
2019-03-18T09:32:25.022Z,44.40
2019-03-18T09:35:28.762Z,44.40
2019-03-18T09:38:32.404Z,44.00
2019-03-18T09:41:36.125Z,42.50
2019-03-18T09:44:40.684Z,43.20
2019-03-18T09:47:44.412Z,42.00
2019-03-18T09:50:48.092Z,41.20
2019-03-18T09:53:51.803Z,42.30
2019-03-18T09:56:55.833Z,42.10
2019-03-18T09:59:59.636Z,42.20
2019-03-18T10:03:03.326Z,41.40
2019-03-18T10:06:07.034Z,42.30
2019-03-18T10:09:10.676Z,42.90
2019-03-18T10:12:14.395Z,42.70
2019-03-18T10:15:18.123Z,43.20
2019-03-18T10:18:21.900Z,43.60
2019-03-18T10:21:25.590Z,42.90
2019-03-18T10:24:29.545Z,43.50
2019-03-18T10:27:33.262Z,43.20
2019-03-18T10:30:36.897Z,42.30
2019-03-18T10:33:41.105Z,43.60
2019-03-18T10:36:45.110Z,44.30
2019-03-18T10:39:49.279Z,42.90
2019-03-18T10:42:52.997Z,42.30
2019-03-18T10:45:56.671Z,41.20
2019-03-18T10:49:00.338Z,40.00
2019-03-18T10:52:04.134Z,39.30
2019-03-18T10:55:09.092Z,39.80
2019-03-18T10:58:12.800Z,39.80
2019-03-18T11:01:16.561Z,39.90
2019-03-18T11:04:20.250Z,39.90
2019-03-18T11:07:24.393Z,40.40
2019-03-18T11:10:28.147Z,40.90
2019-03-18T11:13:31.821Z,41.70
2019-03-18T11:16:35.658Z,45.80
2019-03-18T11:19:39.315Z,49.10
2019-03-18T11:22:43.197Z,49.10
2019-03-18T11:25:46.856Z,51.30
2019-03-18T11:28:50.625Z,52.90
2019-03-18T11:31:54.790Z,52.60
2019-03-18T11:34:58.428Z,53.20
2019-03-18T11:38:02.174Z,53.60
2019-03-18T11:41:05.963Z,51.60
2019-03-18T11:44:09.687Z,51.80
2019-03-18T11:47:13.394Z,47.70
2019-03-18T11:50:17.189Z,43.70
2019-03-18T11:53:20.933Z,42.80
2019-03-18T11:56:24.588Z,41.80
2019-03-18T11:59:28.694Z,40.50
2019-03-18T12:02:33.382Z,40.40
2019-03-18T12:05:37.041Z,39.60
2019-03-18T12:08:40.832Z,40.20
2019-03-18T12:11:44.565Z,40.20
2019-03-18T12:14:48.642Z,41.60
2019-03-18T12:17:52.813Z,40.60
2019-03-18T12:20:57.197Z,40.00
2019-03-18T12:24:01.304Z,39.40
2019-03-18T12:27:05.346Z,39.90
2019-03-18T12:30:15.514Z,35.90
2019-03-18T12:33:19.924Z,37.20
2019-03-18T12:36:23.646Z,36.50
2019-03-18T12:39:27.368Z,36.20
2019-03-18T12:42:31.238Z,35.90
2019-03-18T12:45:34.919Z,36.60
2019-03-18T12:48:38.585Z,40.00
2019-03-18T12:51:43.192Z,43.30
2019-03-18T12:54:47.045Z,43.50
2019-03-18T12:57:50.732Z,45.50
2019-03-18T13:00:54.468Z,45.70
2019-03-18T13:03:58.109Z,44.90
2019-03-18T13:07:02.162Z,47.70
2019-03-18T13:10:07.430Z,49.00
2019-03-18T13:13:11.180Z,47.40
2019-03-18T13:16:17.954Z,46.80
2019-03-18T13:19:20.264Z,45.40
2019-03-18T13:22:23.986Z,46.00
2019-03-18T13:25:27.659Z,43.50
2019-03-18T13:28:31.400Z,43.20
2019-03-18T13:31:35.152Z,40.90
2019-03-18T13:34:38.861Z,40.80
2019-03-18T13:37:42.609Z,41.70
2019-03-18T13:40:46.422Z,40.80
2019-03-18T13:43:50.974Z,39.20
2019-03-18T13:46:54.709Z,40.10
2019-03-18T13:49:58.457Z,39.20
2019-03-18T13:53:02.132Z,39.20
2019-03-18T13:56:05.965Z,38.20
2019-03-18T13:59:09.660Z,38.60
2019-03-18T14:02:13.466Z,42.30
2019-03-18T14:05:17.106Z,45.70
2019-03-18T14:08:20.823Z,49.00
2019-03-18T14:11:24.968Z,46.60
2019-03-18T14:14:29.557Z,44.70
2019-03-18T14:17:33.237Z,44.00
2019-03-18T14:20:36.942Z,42.80
2019-03-18T14:23:40.946Z,42.90
2019-03-18T14:26:44.587Z,41.10
2019-03-18T14:29:48.276Z,40.50
2019-03-18T14:32:51.980Z,39.90
2019-03-18T14:35:55.665Z,39.50
2019-03-18T14:38:59.359Z,38.40
2019-03-18T14:42:03.053Z,37.40
2019-03-18T14:45:08.494Z,37.40
2019-03-18T14:48:12.210Z,36.60
2019-03-18T14:51:15.884Z,36.60
2019-03-18T14:54:19.620Z,36.50
2019-03-18T14:57:23.317Z,35.80
2019-03-18T15:00:27.130Z,36.60
2019-03-18T15:03:30.808Z,36.80
2019-03-18T15:06:35.374Z,37.00
2019-03-18T15:09:39.144Z,38.10
2019-03-18T15:12:42.830Z,35.70
2019-03-18T15:15:46.963Z,36.90
2019-03-18T15:18:50.635Z,36.50
2019-03-18T15:21:58.563Z,37.80
2019-03-18T15:25:00.342Z,37.40
2019-03-18T15:28:04.465Z,38.10
2019-03-18T15:31:08.181Z,38.20
2019-03-18T15:34:11.833Z,39.50
2019-03-18T15:37:15.541Z,41.30
2019-03-18T15:40:19.202Z,42.80
2019-03-18T15:43:23.205Z,43.70
2019-03-18T15:46:26.888Z,45.10
2019-03-18T15:49:30.570Z,45.40
2019-03-18T15:52:34.253Z,46.40
2019-03-18T15:55:37.985Z,47.60
2019-03-18T15:58:44.129Z,49.40
2019-03-18T16:01:47.817Z,49.70
2019-03-18T16:04:51.543Z,50.30
2019-03-18T16:07:55.529Z,49.50
2019-03-18T16:10:59.208Z,49.70
2019-03-18T16:14:02.883Z,50.40
2019-03-18T16:17:06.664Z,50.90
2019-03-18T16:20:11.845Z,51.30
2019-03-18T16:23:15.530Z,50.80
2019-03-18T16:26:19.253Z,50.80
2019-03-18T16:29:22.893Z,50.90
2019-03-18T16:32:26.672Z,50.90
2019-03-18T16:35:30.313Z,50.20
2019-03-18T16:38:34.161Z,50.00
2019-03-18T16:41:37.866Z,49.20
2019-03-18T16:44:42.256Z,49.40
2019-03-18T16:47:45.993Z,48.70
2019-03-18T16:50:49.660Z,48.90
2019-03-18T16:53:53.382Z,48.40
2019-03-18T16:56:57.198Z,48.90
2019-03-18T17:00:00.885Z,48.70
2019-03-18T17:03:04.904Z,49.10
2019-03-18T17:06:08.561Z,49.40
2019-03-18T17:09:12.595Z,49.10
2019-03-18T17:12:16.380Z,49.20
2019-03-18T17:15:20.077Z,49.70
2019-03-18T17:18:23.775Z,49.90
2019-03-18T17:21:27.726Z,50.20
2019-03-18T17:24:31.440Z,50.80
2019-03-18T17:27:35.229Z,53.70
2019-03-18T17:30:38.945Z,58.20
2019-03-18T17:33:42.692Z,61.50
2019-03-18T17:36:46.377Z,60.90
2019-03-18T17:39:50.183Z,63.00
2019-03-18T17:42:53.973Z,64.30
2019-03-18T17:45:57.637Z,65.90
2019-03-18T17:49:01.677Z,64.30
2019-03-18T17:52:05.309Z,64.20
2019-03-18T17:55:09.425Z,64.50
2019-03-18T17:58:13.143Z,63.60
2019-03-18T18:01:17.087Z,63.40
2019-03-18T18:04:20.848Z,63.40
2019-03-18T18:07:24.506Z,63.50
2019-03-18T18:10:28.232Z,64.00
2019-03-18T18:13:31.921Z,64.40
2019-03-18T18:16:35.639Z,64.60
2019-03-18T18:19:39.334Z,64.70
2019-03-18T18:22:43.009Z,64.50
2019-03-18T18:25:46.753Z,63.80
2019-03-18T18:28:50.455Z,64.70
2019-03-18T18:31:54.136Z,64.70
2019-03-18T18:34:58.066Z,65.30
2019-03-18T18:38:01.841Z,64.60
2019-03-18T18:41:05.553Z,64.20
2019-03-18T18:44:09.207Z,63.30
2019-03-18T18:47:13.228Z,63.10
2019-03-18T18:50:17.001Z,62.20
2019-03-18T18:53:26.082Z,62.40
2019-03-18T18:56:26.166Z,62.80
2019-03-18T18:59:30.139Z,62.20
2019-03-18T19:02:33.838Z,61.90
2019-03-18T19:05:37.525Z,62.00
2019-03-18T19:08:41.328Z,60.30
2019-03-18T19:11:45.054Z,59.50
2019-03-18T19:14:48.693Z,60.70
2019-03-18T19:17:52.605Z,59.10
2019-03-18T19:20:56.477Z,59.10
2019-03-18T19:24:00.204Z,59.30
2019-03-18T19:27:03.866Z,59.80
2019-03-18T19:30:10.604Z,60.50
2019-03-18T19:33:14.382Z,60.10
2019-03-18T19:36:18.049Z,60.00
2019-03-18T19:39:22.237Z,60.30
2019-03-18T19:42:25.958Z,59.70
2019-03-18T19:45:29.686Z,59.00
2019-03-18T19:48:34.488Z,59.10
2019-03-18T19:51:38.494Z,59.20
2019-03-18T19:54:42.206Z,59.40
2019-03-18T19:57:45.948Z,59.70
2019-03-18T20:00:49.590Z,59.90
2019-03-18T20:03:53.305Z,59.80
2019-03-18T20:06:57.010Z,59.40
2019-03-18T20:10:00.661Z,58.90
2019-03-18T20:13:05.010Z,59.80
2019-03-18T20:16:09.263Z,60.40
2019-03-18T20:19:13.058Z,59.70
2019-03-18T20:22:16.860Z,60.80
2019-03-18T20:25:20.575Z,60.40
2019-03-18T20:28:24.310Z,59.20
2019-03-18T20:31:27.980Z,60.60
2019-03-18T20:34:34.674Z,60.50
2019-03-18T20:37:38.383Z,59.80
2019-03-18T20:40:42.028Z,60.40
2019-03-18T20:43:45.847Z,60.50
2019-03-18T20:46:49.493Z,60.30
2019-03-18T20:49:53.474Z,59.90
2019-03-18T20:52:57.270Z,60.60
2019-03-18T20:56:00.936Z,59.90
2019-03-18T20:59:04.641Z,60.00
2019-03-18T21:02:08.453Z,59.80
2019-03-18T21:05:12.313Z,60.00
2019-03-18T21:08:16.018Z,59.40
2019-03-18T21:11:19.755Z,59.60
2019-03-18T21:14:23.505Z,59.20
2019-03-18T21:17:27.469Z,59.10
2019-03-18T21:20:31.206Z,59.10
2019-03-18T21:23:34.939Z,58.50
2019-03-18T21:26:38.623Z,59.60
2019-03-18T21:29:42.385Z,58.60
2019-03-18T21:32:46.340Z,58.90
2019-03-18T21:35:52.736Z,58.60
2019-03-18T21:38:55.869Z,58.90
2019-03-18T21:41:59.608Z,59.80
2019-03-18T21:45:03.281Z,59.50
2019-03-18T21:48:07.036Z,60.00
2019-03-18T21:51:11.130Z,60.30
2019-03-18T21:54:17.466Z,60.60
2019-03-18T21:57:20.721Z,60.20
2019-03-18T22:00:24.680Z,60.80
2019-03-18T22:03:28.648Z,60.00
2019-03-18T22:06:32.449Z,59.90
2019-03-18T22:09:36.122Z,59.40
2019-03-18T22:12:40.284Z,59.40
2019-03-18T22:15:43.970Z,58.50
2019-03-18T22:18:47.688Z,59.70
2019-03-18T22:21:51.407Z,59.50
2019-03-18T22:24:55.221Z,59.50
2019-03-18T22:27:58.937Z,58.60
2019-03-18T22:31:03.227Z,58.30
2019-03-18T22:34:06.948Z,58.90
2019-03-18T22:37:10.638Z,58.60
2019-03-18T22:40:14.432Z,58.20
2019-03-18T22:43:19.058Z,59.10
2019-03-18T22:46:22.870Z,59.10
2019-03-18T22:49:26.554Z,58.50
2019-03-18T22:52:30.537Z,58.50
2019-03-18T22:55:34.253Z,59.40
2019-03-18T22:58:38.017Z,59.00
2019-03-18T23:01:41.991Z,60.00
2019-03-18T23:04:46.150Z,59.80
2019-03-18T23:07:49.857Z,59.70
2019-03-18T23:10:53.761Z,59.80
2019-03-18T23:13:57.493Z,60.00
2019-03-18T23:17:01.121Z,59.10
2019-03-18T23:20:05.205Z,58.70
2019-03-18T23:23:08.950Z,58.60
2019-03-18T23:26:12.704Z,59.50
2019-03-18T23:29:16.407Z,58.90
2019-03-18T23:32:20.354Z,59.50
2019-03-18T23:35:24.363Z,58.60
2019-03-18T23:38:28.005Z,60.00
2019-03-18T23:41:32.001Z,58.50
2019-03-18T23:44:35.709Z,59.70
2019-03-18T23:47:39.446Z,60.20
2019-03-18T23:50:43.107Z,59.90
2019-03-18T23:53:46.902Z,59.50
2019-03-18T23:56:50.641Z,59.40
2019-03-18T23:59:54.313Z,59.40
